Time;durP1;ratioP1;P1;durP2;ratioP2;P2;SDS_P1;SDS_P2;PMS_P1;PMS_P2;Temp;Humidity;BMP_temperature;BMP_pressure;BME280_temperature;BME280_humidity;BME280_pressure;Samples;Min_cycle;Max_cycle;Signal;HPM_P1;HPM_P2
2023/01/15 00:02:06;;;;;;;2.17;1.20;;;21.40;58.60;;;;;;4926325;29;20458;-70
2023/01/15 00:04:35;;;;;;;6.47;1.23;;;21.40;58.70;;;;;;4929271;29;20490;-68
2023/01/15 00:07:03;;;;;;;1.73;1.53;;;21.40;58.70;;;;;;4934936;29;20539;-70
2023/01/15 00:09:33;;;;;;;3.43;2.10;;;21.40;58.80;;;;;;4926726;29;20458;-68
2023/01/15 00:12:01;;;;;;;1.60;1.20;;;21.40;58.70;;;;;;4929045;29;20553;-68
2023/01/15 00:14:29;;;;;;;1.87;1.50;;;21.40;58.70;;;;;;4920441;29;21002;-68
2023/01/15 00:16:57;;;;;;;1.67;1.13;;;21.40;58.80;;;;;;4931572;29;20456;-68
2023/01/15 00:19:26;;;;;;;1.70;1.60;;;21.50;58.80;;;;;;4934905;29;20459;-68
2023/01/15 00:21:54;;;;;;;1.33;1.10;;;21.40;58.80;;;;;;4934737;29;20465;-70
2023/01/15 00:29:56;;;;;;;1.73;1.63;;;21.50;58.60;;;;;;4918614;29;20490;-68
2023/01/15 00:32:26;;;;;;;1.47;1.20;;;21.50;58.70;;;;;;4927138;29;20458;-69
2023/01/15 00:34:55;;;;;;;2.03;1.50;;;21.50;58.50;;;;;;4929516;29;20568;-69
2023/01/15 00:37:23;;;;;;;1.13;1.03;;;21.50;58.40;;;;;;4929893;29;20525;-69
2023/01/15 00:39:51;;;;;;;2.30;1.00;;;21.50;58.50;;;;;;4932243;29;20541;-68
2023/01/15 00:42:21;;;;;;;1.57;0.90;;;21.50;58.60;;;;;;4929724;29;20847;-69
2023/01/15 00:44:49;;;;;;;1.40;0.90;;;21.50;58.50;;;;;;4933973;29;20546;-71
2023/01/15 00:47:17;;;;;;;1.73;1.00;;;21.50;58.40;;;;;;4934625;29;20466;-69
2023/01/15 00:49:45;;;;;;;1.10;1.00;;;21.50;58.40;;;;;;4929293;29;20501;-68
2023/01/15 00:52:14;;;;;;;1.17;1.00;;;21.50;58.40;;;;;;4938604;29;20473;-69
2023/01/15 00:54:42;;;;;;;1.60;1.10;;;21.50;58.40;;;;;;4936863;29;20519;-69
2023/01/15 00:57:11;;;;;;;0.80;0.80;;;21.50;58.50;;;;;;4928546;29;20964;-69
2023/01/15 00:59:40;;;;;;;0.70;0.70;;;21.50;58.40;;;;;;4932677;29;20460;-69
2023/01/15 01:02:08;;;;;;;1.33;0.90;;;21.60;58.50;;;;;;4939435;29;20955;-69
2023/01/15 01:04:37;;;;;;;1.00;0.97;;;21.60;58.50;;;;;;4937142;29;20495;-69
2023/01/15 01:07:06;;;;;;;1.83;1.10;;;21.60;58.50;;;;;;4933157;29;20462;-69
2023/01/15 01:09:34;;;;;;;0.90;0.90;;;21.60;58.50;;;;;;4939412;29;20440;-69
2023/01/15 01:12:03;;;;;;;0.73;0.73;;;21.60;58.40;;;;;;4938496;29;20955;-70
2023/01/15 01:14:31;;;;;;;1.33;0.93;;;21.60;58.20;;;;;;4936500;29;20532;-68
2023/01/15 01:17:01;;;;;;;1.03;0.80;;;21.60;58.40;;;;;;4934985;29;20506;-70
2023/01/15 01:19:29;;;;;;;0.80;0.80;;;21.60;58.20;;;;;;4939766;29;20535;-69
2023/01/15 01:21:57;;;;;;;3.17;1.20;;;21.60;58.40;;;;;;4939571;29;20479;-68
2023/01/15 01:24:26;;;;;;;0.73;0.73;;;21.60;58.40;;;;;;4939078;29;20489;-68
2023/01/15 01:26:56;;;;;;;1.30;1.00;;;21.60;58.40;;;;;;4939150;29;20985;-69
2023/01/15 01:29:25;;;;;;;1.00;1.00;;;21.60;58.20;;;;;;4937643;29;20487;-68
2023/01/15 01:31:53;;;;;;;1.10;1.00;;;21.60;58.40;;;;;;4922338;29;20463;-70
2023/01/15 01:34:22;;;;;;;0.90;0.90;;;21.60;58.40;;;;;;4930251;29;20477;-70
2023/01/15 01:36:50;;;;;;;0.70;0.63;;;21.60;58.40;;;;;;4937781;29;20464;-69
2023/01/15 01:39:19;;;;;;;1.07;0.97;;;21.60;58.40;;;;;;4933617;29;20887;-69
2023/01/15 01:41:48;;;;;;;1.00;0.93;;;21.60;58.40;;;;;;4939749;29;20574;-69
2023/01/15 01:44:53;;;;;;;1.77;1.23;;;21.60;58.30;;;;;;4940355;29;20779;-68
2023/01/15 01:47:25;;;;;;;0.70;0.70;;;21.60;58.10;;;;;;4941018;29;20904;-68
2023/01/15 01:49:59;;;;;;;2.03;0.70;;;21.60;58.20;;;;;;4933966;29;20538;-69
2023/01/15 01:52:31;;;;;;;0.70;0.70;;;21.60;58.30;;;;;;4935933;29;20463;-68
2023/01/15 01:55:02;;;;;;;0.90;0.80;;;21.60;58.20;;;;;;4934900;29;20819;-69
2023/01/15 01:57:30;;;;;;;0.80;0.80;;;21.60;58.10;;;;;;4932076;29;20466;-68
2023/01/15 02:00:01;;;;;;;0.77;0.70;;;21.60;58.20;;;;;;4931348;29;20857;-69
2023/01/15 02:02:43;;;;;;;1.07;0.97;;;21.60;58.10;;;;;;4935448;29;20450;-68
2023/01/15 02:05:16;;;;;;;0.90;0.90;;;21.60;58.20;;;;;;4930708;29;20472;-68
2023/01/15 02:07:45;;;;;;;0.67;0.67;;;21.60;58.00;;;;;;4933889;29;20452;-69
2023/01/15 02:10:15;;;;;;;0.90;0.73;;;21.60;58.00;;;;;;4933345;29;20476;-70
2023/01/15 02:12:49;;;;;;;1.27;1.00;;;21.60;58.20;;;;;;4931241;29;20476;-71
2023/01/15 02:15:23;;;;;;;1.03;0.80;;;21.60;58.10;;;;;;4926487;29;20506;-68
2023/01/15 02:17:58;;;;;;;1.37;0.80;;;21.60;58.10;;;;;;4931475;29;20508;-69
2023/01/15 02:20:35;;;;;;;0.60;0.60;;;21.60;58.10;;;;;;4926955;29;20453;-68
2023/01/15 02:23:31;;;;;;;0.80;0.60;;;21.60;58.00;;;;;;4930576;29;20798;-71
2023/01/15 02:26:41;;;;;;;0.90;0.90;;;21.60;57.90;;;;;;4931376;29;20474;-69
2023/01/15 02:29:15;;;;;;;0.83;0.83;;;21.60;57.80;;;;;;4932017;29;20966;-69
2023/01/15 02:31:49;;;;;;;1.23;0.70;;;21.60;57.90;;;;;;4933786;29;20470;-69
2023/01/15 02:34:25;;;;;;;0.60;0.60;;;21.50;57.90;;;;;;4936035;29;20465;-68
2023/01/15 02:36:58;;;;;;;0.77;0.77;;;21.50;57.90;;;;;;4936061;29;20462;-69
2023/01/15 02:39:29;;;;;;;1.17;0.73;;;21.60;57.90;;;;;;4932862;29;20474;-68
2023/01/15 02:42:02;;;;;;;0.83;0.70;;;21.50;57.90;;;;;;4933709;29;20497;-69
2023/01/15 02:44:41;;;;;;;1.27;1.00;;;21.50;57.80;;;;;;4935159;29;20490;-68
2023/01/15 02:47:13;;;;;;;0.80;0.60;;;21.50;57.80;;;;;;4935622;29;20498;-68
2023/01/15 02:49:42;;;;;;;0.80;0.80;;;21.50;57.80;;;;;;4930681;29;20490;-69
2023/01/15 02:52:18;;;;;;;0.80;0.80;;;21.50;57.80;;;;;;4933145;29;21023;-71
2023/01/15 02:54:49;;;;;;;1.90;0.60;;;21.50;57.70;;;;;;4931970;29;20499;-69
2023/01/15 02:57:20;;;;;;;0.80;0.80;;;21.50;57.80;;;;;;4933469;29;20971;-72
2023/01/15 02:59:58;;;;;;;0.77;0.70;;;21.50;57.80;;;;;;4934712;29;20866;-69
2023/01/15 03:02:32;;;;;;;1.17;1.00;;;21.50;57.80;;;;;;4935668;29;20457;-69
2023/01/15 03:05:05;;;;;;;0.83;0.83;;;21.50;57.70;;;;;;4933172;29;20477;-69
2023/01/15 03:07:40;;;;;;;0.60;0.57;;;21.50;57.70;;;;;;4944911;29;21049;-69
2023/01/15 03:10:10;;;;;;;0.50;0.50;;;21.50;57.70;;;;;;4929113;29;20477;-70
2023/01/15 03:18:45;;;;;;;0.70;0.70;;;21.50;57.80;;;;;;4934588;29;20468;-68
2023/01/15 03:21:21;;;;;;;0.80;0.80;;;21.50;57.60;;;;;;4932578;29;20448;-68
2023/01/15 03:23:54;;;;;;;0.60;0.60;;;21.50;57.70;;;;;;4936581;29;20481;-69
2023/01/15 03:26:25;;;;;;;0.50;0.50;;;21.50;57.60;;;;;;4935068;29;20479;-69
2023/01/15 03:28:55;;;;;;;0.50;0.50;;;21.50;57.70;;;;;;4933439;29;21004;-69
2023/01/15 03:31:25;;;;;;;0.50;0.50;;;21.50;57.70;;;;;;4933738;29;20467;-70
2023/01/15 03:33:54;;;;;;;0.57;0.57;;;21.50;57.70;;;;;;4934916;29;20465;-69
2023/01/15 03:36:24;;;;;;;0.90;0.70;;;21.50;57.70;;;;;;4934568;29;21079;-68
2023/01/15 03:38:55;;;;;;;0.53;0.50;;;21.50;57.70;;;;;;4929643;29;20556;-71
2023/01/15 03:41:57;;;;;;;0.40;0.40;;;21.60;57.70;;;;;;4926998;29;20482;-71
2023/01/15 03:44:32;;;;;;;0.70;0.70;;;21.60;57.60;;;;;;4925813;29;20469;-68
2023/01/15 03:47:14;;;;;;;0.67;0.60;;;21.50;57.70;;;;;;4930876;29;20474;-72
2023/01/15 03:49:50;;;;;;;0.53;0.53;;;21.60;57.70;;;;;;4933632;29;20467;-70
2023/01/15 03:52:31;;;;;;;0.77;0.70;;;21.60;57.50;;;;;;4946037;29;20469;-69
2023/01/15 03:55:09;;;;;;;0.50;0.50;;;21.60;57.50;;;;;;4934599;29;20459;-69
2023/01/15 03:57:43;;;;;;;0.70;0.70;;;21.60;57.50;;;;;;4931505;29;20465;-69
2023/01/15 04:00:17;;;;;;;0.60;0.60;;;21.60;57.60;;;;;;4929367;29;21150;-68
2023/01/15 04:02:52;;;;;;;0.70;0.50;;;21.50;57.60;;;;;;4927839;29;20462;-69
2023/01/15 04:05:23;;;;;;;0.60;0.60;;;21.50;57.60;;;;;;4929682;29;20960;-70
2023/01/15 04:07:54;;;;;;;0.40;0.40;;;21.50;57.60;;;;;;4924409;29;20796;-69
2023/01/15 04:10:23;;;;;;;0.70;0.70;;;21.50;57.60;;;;;;4948612;29;20531;-68
2023/01/15 04:12:51;;;;;;;0.70;0.70;;;21.50;57.60;;;;;;4931834;29;20999;-69
2023/01/15 04:15:20;;;;;;;0.73;0.70;;;21.60;57.60;;;;;;4933805;29;20487;-68
2023/01/15 04:17:50;;;;;;;0.57;0.50;;;21.60;57.50;;;;;;4931263;29;20537;-70
2023/01/15 04:20:19;;;;;;;0.77;0.77;;;21.60;57.50;;;;;;4929827;29;20789;-69
2023/01/15 04:22:47;;;;;;;0.60;0.50;;;21.60;57.50;;;;;;4932282;29;20462;-68
2023/01/15 04:25:15;;;;;;;0.50;0.50;;;21.60;57.50;;;;;;4935345;29;20912;-75
2023/01/15 04:27:43;;;;;;;0.60;0.60;;;21.60;57.40;;;;;;4928714;29;20466;-68
2023/01/15 04:30:12;;;;;;;0.50;0.50;;;21.50;57.50;;;;;;4932344;29;20558;-69
2023/01/15 04:32:41;;;;;;;0.77;0.77;;;21.60;57.40;;;;;;4922288;29;20954;-68
2023/01/15 04:35:10;;;;;;;0.50;0.50;;;21.60;57.50;;;;;;4930908;29;20462;-69
2023/01/15 04:37:38;;;;;;;0.67;0.60;;;21.50;57.40;;;;;;4927791;29;20495;-69
2023/01/15 04:40:08;;;;;;;0.50;0.40;;;21.60;57.40;;;;;;4919860;29;20519;-69
2023/01/15 04:45:23;;;;;;;1.80;0.60;;;21.60;57.50;;;;;;4927473;29;20557;-70
2023/01/15 04:47:51;;;;;;;0.70;0.60;;;21.60;57.50;;;;;;4928822;29;20551;-68
2023/01/15 04:50:21;;;;;;;0.63;0.60;;;21.60;57.40;;;;;;4934252;29;20475;-69
2023/01/15 04:52:50;;;;;;;0.70;0.70;;;21.60;57.40;;;;;;4931824;29;20471;-69
2023/01/15 04:55:18;;;;;;;0.50;0.50;;;21.60;57.40;;;;;;4916570;29;20908;-70
2023/01/15 04:57:49;;;;;;;0.43;0.43;;;21.60;57.40;;;;;;4926394;29;20829;-70
2023/01/15 05:00:18;;;;;;;1.10;0.60;;;21.60;57.50;;;;;;4932672;29;20488;-68
2023/01/15 05:02:47;;;;;;;0.73;0.47;;;21.50;57.40;;;;;;4929293;29;21021;-69
2023/01/15 05:05:15;;;;;;;0.60;0.60;;;21.50;57.50;;;;;;4934534;29;20498;-69
2023/01/15 05:07:44;;;;;;;0.50;0.50;;;21.50;57.50;;;;;;4932410;29;20485;-69
2023/01/15 05:10:12;;;;;;;0.70;0.50;;;21.50;57.50;;;;;;4926998;29;20474;-69
2023/01/15 05:12:41;;;;;;;0.60;0.60;;;21.60;57.40;;;;;;4923989;29;20538;-72
2023/01/15 05:15:09;;;;;;;0.60;0.60;;;21.60;57.40;;;;;;4928589;29;20590;-68
2023/01/15 05:17:37;;;;;;;0.60;0.50;;;21.60;57.40;;;;;;4931535;29;20511;-68
2023/01/15 05:20:07;;;;;;;0.40;0.40;;;21.60;57.40;;;;;;4933868;29;20485;-68
2023/01/15 05:22:35;;;;;;;1.10;0.63;;;21.60;57.40;;;;;;4932278;29;20479;-70
2023/01/15 05:25:06;;;;;;;0.40;0.40;;;21.60;57.40;;;;;;4931660;29;21010;-68
2023/01/15 05:27:34;;;;;;;0.50;0.50;;;21.60;57.40;;;;;;4929789;29;20952;-68
2023/01/15 05:30:03;;;;;;;0.60;0.60;;;21.60;57.40;;;;;;4934298;29;20481;-68
2023/01/15 05:32:31;;;;;;;1.03;0.60;;;21.60;57.40;;;;;;4931614;29;20939;-68
2023/01/15 05:34:59;;;;;;;0.53;0.53;;;21.60;57.40;;;;;;4930477;29;20470;-68
2023/01/15 05:37:30;;;;;;;0.60;0.40;;;21.60;57.40;;;;;;4934052;29;20562;-68
2023/01/15 05:39:58;;;;;;;0.50;0.50;;;21.60;57.40;;;;;;4934514;29;20919;-68
2023/01/15 05:42:27;;;;;;;0.57;0.57;;;21.60;57.40;;;;;;4937136;29;20492;-68
2023/01/15 05:44:56;;;;;;;0.70;0.70;;;21.60;57.40;;;;;;4933338;29;20658;-69
2023/01/15 05:47:24;;;;;;;0.40;0.40;;;21.60;57.30;;;;;;4934751;29;21265;-69
2023/01/15 05:49:52;;;;;;;0.53;0.53;;;21.60;57.30;;;;;;4935380;29;20456;-70
2023/01/15 05:52:20;;;;;;;0.50;0.50;;;21.60;57.30;;;;;;4934732;29;20864;-69
2023/01/15 05:54:49;;;;;;;0.50;0.50;;;21.70;57.30;;;;;;4937089;29;20573;-69
2023/01/15 05:57:17;;;;;;;0.50;0.50;;;21.60;57.30;;;;;;4936161;29;20470;-68
2023/01/15 05:59:49;;;;;;;0.40;0.40;;;21.60;57.30;;;;;;4937045;29;20931;-69
2023/01/15 06:02:17;;;;;;;0.40;0.40;;;21.60;57.30;;;;;;4929328;29;20946;-71
2023/01/15 06:04:45;;;;;;;0.50;0.40;;;21.60;57.30;;;;;;4936397;29;20470;-71
2023/01/15 06:07:13;;;;;;;0.50;0.50;;;21.60;57.30;;;;;;4933297;29;20507;-68
2023/01/15 06:09:41;;;;;;;0.40;0.40;;;21.60;57.30;;;;;;4936328;29;20562;-69
2023/01/15 06:12:10;;;;;;;0.30;0.30;;;21.60;57.30;;;;;;4929074;29;20942;-69
2023/01/15 06:14:38;;;;;;;0.50;0.50;;;21.60;57.30;;;;;;4935293;29;20958;-68
2023/01/15 06:17:07;;;;;;;0.40;0.40;;;21.60;57.30;;;;;;4934081;29;20568;-68
2023/01/15 06:19:35;;;;;;;0.40;0.40;;;21.60;57.40;;;;;;4927965;29;20525;-72
2023/01/15 06:22:03;;;;;;;0.50;0.40;;;21.60;57.40;;;;;;4924881;29;20471;-68
2023/01/15 06:24:31;;;;;;;1.03;0.60;;;21.50;57.40;;;;;;4932393;29;20459;-69
2023/01/15 06:27:00;;;;;;;0.73;0.40;;;21.50;57.50;;;;;;4937033;29;20462;-69
2023/01/15 06:29:28;;;;;;;0.50;0.50;;;21.50;57.50;;;;;;4928468;29;20519;-68
2023/01/15 06:31:56;;;;;;;0.43;0.43;;;21.50;57.50;;;;;;4918424;29;21144;-70
2023/01/15 06:34:25;;;;;;;0.70;0.60;;;21.50;57.50;;;;;;4918683;29;20425;-68
2023/01/15 06:36:53;;;;;;;0.63;0.50;;;21.50;57.50;;;;;;4935264;29;20570;-69
2023/01/15 06:39:22;;;;;;;0.40;0.30;;;21.50;57.60;;;;;;4936962;29;20447;-70
2023/01/15 06:47:21;;;;;;;0.50;0.50;;;21.50;57.60;;;;;;4933064;29;20460;-68
2023/01/15 06:49:54;;;;;;;0.50;0.40;;;21.50;57.60;;;;;;4923364;29;20855;-68
2023/01/15 06:52:23;;;;;;;0.50;0.40;;;21.50;57.70;;;;;;4923760;29;20541;-68
2023/01/15 06:54:52;;;;;;;0.50;0.30;;;21.50;57.60;;;;;;4936081;29;20438;-68
2023/01/15 06:57:20;;;;;;;0.50;0.50;;;21.60;57.60;;;;;;4930293;29;21021;-68
2023/01/15 06:59:49;;;;;;;0.40;0.40;;;21.60;57.50;;;;;;4931003;29;20480;-68
2023/01/15 07:02:18;;;;;;;0.40;0.40;;;21.60;57.60;;;;;;4926094;29;20447;-68
2023/01/15 07:04:46;;;;;;;0.70;0.40;;;21.60;57.60;;;;;;4926982;29;20452;-70
2023/01/15 07:07:19;;;;;;;0.40;0.40;;;21.60;57.50;;;;;;4925929;29;20456;-68
2023/01/15 07:09:47;;;;;;;0.50;0.30;;;21.60;57.50;;;;;;4927241;29;20467;-69
2023/01/15 07:12:16;;;;;;;0.50;0.43;;;21.60;57.50;;;;;;4927741;29;20487;-69
2023/01/15 07:14:44;;;;;;;0.30;0.30;;;21.60;57.40;;;;;;4923775;29;21062;-69
2023/01/15 07:17:13;;;;;;;0.60;0.60;;;21.60;57.40;;;;;;4924797;29;20487;-69
2023/01/15 07:19:41;;;;;;;0.50;0.50;;;21.60;57.50;;;;;;4926196;29;20455;-70
2023/01/15 07:22:10;;;;;;;0.40;0.40;;;21.60;57.60;;;;;;4923436;29;20459;-70
2023/01/15 07:24:39;;;;;;;0.57;0.40;;;21.60;57.70;;;;;;4923195;29;20459;-69
2023/01/15 07:27:08;;;;;;;0.40;0.40;;;21.60;57.90;;;;;;4936027;29;20976;-69
2023/01/15 07:29:36;;;;;;;0.97;0.90;;;21.50;58.00;;;;;;4924322;29;20463;-69
2023/01/15 07:32:06;;;;;;;0.40;0.40;;;21.60;58.10;;;;;;4921338;29;20479;-69
2023/01/15 07:34:34;;;;;;;0.60;0.60;;;21.50;58.10;;;;;;4925707;29;20562;-71
2023/01/15 07:37:02;;;;;;;0.53;0.50;;;21.50;58.30;;;;;;4925718;29;20457;-68
2023/01/15 07:39:31;;;;;;;0.70;0.53;;;21.50;58.30;;;;;;4932009;29;20530;-68
2023/01/15 07:50:20;;;;;;;0.43;0.30;;;21.50;58.60;;;;;;4928263;29;20501;-69
2023/01/15 07:52:49;;;;;;;0.50;0.40;;;21.50;58.60;;;;;;4927996;29;20455;-67
2023/01/15 07:55:20;;;;;;;0.73;0.73;;;21.50;58.70;;;;;;4927609;29;20543;-67
2023/01/15 07:57:50;;;;;;;2.77;0.80;;;21.50;58.80;;;;;;4931548;29;20506;-66
2023/01/15 08:00:22;;;;;;;2.83;0.63;;;21.50;58.90;;;;;;4930154;29;20463;-66
2023/01/15 08:02:51;;;;;;;1.10;0.63;;;21.50;59.00;;;;;;4932880;29;20965;-66
2023/01/15 08:05:19;;;;;;;1.17;0.80;;;21.50;59.10;;;;;;4930996;29;21253;-67
2023/01/15 08:07:48;;;;;;;2.13;0.60;;;21.60;59.00;;;;;;4926006;29;20460;-69
2023/01/15 08:10:18;;;;;;;1.07;0.70;;;21.60;59.10;;;;;;4932198;29;20506;-68
2023/01/15 08:15:39;;;;;;;1.80;0.70;;;21.60;59.00;;;;;;4931099;29;20469;-69
2023/01/15 08:18:08;;;;;;;1.90;1.80;;;21.60;59.10;;;;;;4930228;29;20578;-68
2023/01/15 08:20:36;;;;;;;2.07;1.43;;;21.60;59.10;;;;;;4925192;29;20485;-68
2023/01/15 08:23:04;;;;;;;1.90;0.77;;;21.60;59.20;;;;;;4932019;29;20467;-68
2023/01/15 08:25:33;;;;;;;3.13;1.17;;;21.60;59.40;;;;;;4928733;29;20471;-69
2023/01/15 08:28:02;;;;;;;1.43;0.90;;;21.60;59.50;;;;;;4926844;29;20493;-67
2023/01/15 08:30:31;;;;;;;1.90;0.87;;;21.60;59.60;;;;;;4926787;29;20485;-67
2023/01/15 08:33:01;;;;;;;2.63;1.23;;;21.60;59.70;;;;;;4931656;29;20538;-68
2023/01/15 08:35:30;;;;;;;4.30;0.90;;;21.60;59.80;;;;;;4934020;29;20538;-67
2023/01/15 08:37:58;;;;;;;1.10;0.67;;;21.60;59.90;;;;;;4922156;29;20584;-68
2023/01/15 08:40:27;;;;;;;1.47;0.83;;;21.60;60.00;;;;;;4926727;29;20541;-67
2023/01/15 08:42:55;;;;;;;1.40;0.90;;;21.60;60.10;;;;;;4931667;29;20457;-68
2023/01/15 08:45:25;;;;;;;1.60;1.13;;;21.60;60.20;;;;;;4930070;29;20462;-66
2023/01/15 08:47:55;;;;;;;1.90;0.73;;;21.60;60.30;;;;;;4928157;29;20484;-64
2023/01/15 08:50:23;;;;;;;2.63;0.83;;;21.60;60.40;;;;;;4926323;29;20497;-66
2023/01/15 08:52:51;;;;;;;2.63;1.10;;;21.60;60.40;;;;;;4928029;29;20470;-66
2023/01/15 08:55:19;;;;;;;3.37;1.23;;;21.60;60.60;;;;;;4930120;29;20473;-74
2023/01/15 08:57:47;;;;;;;6.20;1.30;;;21.60;60.80;;;;;;4918814;29;20459;-73
2023/01/15 09:00:16;;;;;;;2.20;1.20;;;21.60;60.80;;;;;;4929145;29;20514;-74
2023/01/15 09:02:46;;;;;;;3.60;1.30;;;21.60;60.60;;;;;;4931228;29;20487;-74
2023/01/15 09:05:17;;;;;;;1.70;1.07;;;21.70;60.50;;;;;;4926823;29;20463;-74
2023/01/15 09:07:45;;;;;;;11.47;1.20;;;21.70;60.20;;;;;;4924443;29;20463;-72
2023/01/15 09:10:14;;;;;;;3.00;0.90;;;21.70;60.10;;;;;;4928103;29;20567;-71
2023/01/15 09:12:42;;;;;;;1.70;1.10;;;21.80;59.90;;;;;;4929284;29;20469;-80
2023/01/15 09:15:11;;;;;;;2.30;1.10;;;21.80;59.80;;;;;;4928470;29;20594;-82
2023/01/15 09:17:39;;;;;;;1.40;1.10;;;21.80;59.70;;;;;;4931230;29;20839;-80
2023/01/15 09:20:12;;;;;;;2.00;1.27;;;21.80;59.60;;;;;;4926502;29;20483;-78
2023/01/15 09:22:42;;;;;;;2.40;0.80;;;21.80;59.60;;;;;;4935498;29;21011;-72
2023/01/15 09:25:10;;;;;;;6.40;1.20;;;21.80;59.50;;;;;;4926888;29;20507;-80
2023/01/15 09:27:39;;;;;;;2.43;0.80;;;21.80;59.50;;;;;;4931045;29;20876;-80
2023/01/15 09:30:11;;;;;;;1.80;1.00;;;21.80;59.50;;;;;;4934892;29;20556;-82
2023/01/15 09:32:40;;;;;;;2.60;2.07;;;21.80;59.50;;;;;;4937633;29;20475;-78
2023/01/15 09:35:10;;;;;;;1.70;0.70;;;21.80;59.50;;;;;;4932353;29;20546;-80
2023/01/15 09:37:39;;;;;;;2.37;0.73;;;21.80;59.50;;;;;;4932929;29;20464;-81
2023/01/15 09:40:20;;;;;;;1.33;0.80;;;21.80;59.40;;;;;;4936310;29;20483;-83
2023/01/15 09:42:56;;;;;;;0.93;0.90;;;21.70;59.50;;;;;;4936556;29;20566;-73
2023/01/15 09:45:27;;;;;;;2.27;1.03;;;21.70;59.40;;;;;;4936132;29;20995;-86
2023/01/15 09:48:29;;;;;;;2.87;1.33;;;21.70;59.50;;;;;;4934446;29;20816;-86
2023/01/15 09:51:18;;;;;;;1.40;0.90;;;21.70;59.50;;;;;;4929662;29;20466;-68
2023/01/15 09:54:24;;;;;;;1.17;0.93;;;21.60;59.70;;;;;;4936937;29;20455;-70
2023/01/15 09:56:54;;;;;;;3.40;1.27;;;21.60;59.90;;;;;;4932013;29;20871;-69
2023/01/15 09:59:30;;;;;;;5.73;1.30;;;21.60;60.20;;;;;;4933154;29;20481;-69
2023/01/15 10:02:02;;;;;;;1.63;1.30;;;21.60;60.50;;;;;;4934302;29;20558;-68
2023/01/15 10:04:37;;;;;;;4.60;1.60;;;21.60;60.50;;;;;;4931026;29;20977;-68
2023/01/15 10:07:19;;;;;;;2.23;1.50;;;21.60;60.60;;;;;;4932592;29;20505;-67
2023/01/15 10:09:56;;;;;;;3.70;1.80;;;21.70;60.50;;;;;;4932757;29;20498;-66
2023/01/15 10:12:38;;;;;;;4.70;1.50;;;21.70;60.50;;;;;;4936706;29;20454;-66
2023/01/15 10:15:22;;;;;;;3.43;2.00;;;21.70;60.60;;;;;;4936704;29;20486;-67
2023/01/15 10:17:53;;;;;;;5.83;1.50;;;21.70;60.40;;;;;;4935077;29;20452;-67
2023/01/15 10:21:07;;;;;;;4.73;1.50;;;21.70;60.60;;;;;;4931634;29;20477;-67
2023/01/15 10:23:42;;;;;;;5.70;1.90;;;21.70;60.60;;;;;;4867375;29;20800;-67
2023/01/15 10:26:17;;;;;;;7.73;1.40;;;21.70;60.50;;;;;;4921963;29;20569;-67
2023/01/15 10:28:59;;;;;;;3.63;1.50;;;21.70;60.70;;;;;;4932880;29;20455;-67
2023/01/15 10:31:50;;;;;;;6.53;1.40;;;21.70;60.60;;;;;;4932369;29;20460;-67
2023/01/15 10:34:53;;;;;;;3.90;2.43;;;21.70;60.50;;;;;;4935093;29;20813;-66
2023/01/15 10:37:27;;;;;;;5.73;1.57;;;21.70;60.60;;;;;;4935599;29;20456;-67
2023/01/15 10:40:13;;;;;;;2.50;1.40;;;21.70;60.80;;;;;;4936966;29;20484;-67
2023/01/15 10:42:48;;;;;;;6.27;1.50;;;21.70;60.70;;;;;;4937329;29;20514;-67
2023/01/15 10:45:20;;;;;;;4.97;1.80;;;21.60;60.70;;;;;;4934542;29;20554;-67
2023/01/15 10:47:55;;;;;;;5.17;1.87;;;21.60;60.70;;;;;;4931851;29;20463;-67
2023/01/15 10:50:26;;;;;;;1.43;0.97;;;21.60;60.70;;;;;;4935848;29;20491;-66
2023/01/15 10:53:06;;;;;;;3.60;1.40;;;21.60;60.80;;;;;;4937751;29;20440;-67
2023/01/15 10:55:39;;;;;;;2.23;1.10;;;21.60;60.80;;;;;;4930966;29;20462;-67
2023/01/15 10:58:14;;;;;;;2.77;1.20;;;21.60;60.80;;;;;;4935255;29;20450;-66
2023/01/15 11:00:49;;;;;;;3.50;1.03;;;21.60;60.70;;;;;;4933758;29;20973;-67
2023/01/15 11:03:23;;;;;;;2.37;0.93;;;21.60;60.70;;;;;;4932600;29;20488;-67
2023/01/15 11:05:51;;;;;;;4.20;1.27;;;21.60;60.50;;;;;;4931009;29;20840;-68
2023/01/15 11:08:26;;;;;;;7.97;1.37;;;21.60;60.70;;;;;;4933323;29;20448;-65
2023/01/15 11:11:22;;;;;;;3.33;1.67;;;21.60;60.50;;;;;;4933464;29;20957;-66
2023/01/15 11:19:36;;;;;;;4.17;2.10;;;21.60;60.80;;;;;;4934635;29;20906;-72
2023/01/15 11:22:10;;;;;;;3.27;1.40;;;21.60;60.90;;;;;;4934058;29;20948;-73
2023/01/15 11:24:45;;;;;;;3.53;2.30;;;21.60;61.00;;;;;;4933158;29;20562;-76
2023/01/15 11:27:19;;;;;;;2.87;1.27;;;21.70;60.90;;;;;;4932412;29;20501;-68
2023/01/15 11:29:52;;;;;;;1.83;1.10;;;21.70;60.90;;;;;;4931466;29;20563;-74
2023/01/15 11:32:30;;;;;;;2.23;1.40;;;21.70;60.90;;;;;;4931980;29;20511;-81
2023/01/15 11:35:00;;;;;;;1.77;0.97;;;21.70;60.90;;;;;;4933590;29;20491;-76
2023/01/15 11:37:28;;;;;;;1.73;0.90;;;21.70;60.90;;;;;;4935033;29;20459;-68
2023/01/15 11:40:03;;;;;;;1.47;1.27;;;21.70;60.80;;;;;;4935282;29;20475;-77
2023/01/15 11:51:06;;;;;;;2.70;1.80;;;21.70;60.80;;;;;;4933591;29;21014;-81
2023/01/15 11:53:40;;;;;;;6.23;1.50;;;21.70;60.70;;;;;;4931541;29;20451;-79
2023/01/15 11:56:13;;;;;;;2.47;1.50;;;21.70;60.40;;;;;;4934053;29;20511;-75
2023/01/15 11:58:46;;;;;;;3.47;1.73;;;21.70;60.60;;;;;;4932620;29;20478;-79
2023/01/15 12:01:23;;;;;;;3.53;1.43;;;21.70;60.60;;;;;;4933647;29;20562;-77
2023/01/15 12:03:51;;;;;;;2.77;1.30;;;21.60;60.70;;;;;;4935274;29;20454;-82
2023/01/15 12:06:20;;;;;;;2.63;1.20;;;21.60;60.70;;;;;;4932911;29;20515;-74
2023/01/15 12:08:51;;;;;;;3.77;1.50;;;21.60;60.60;;;;;;4933608;29;20842;-75
2023/01/15 12:11:34;;;;;;;2.17;1.43;;;21.60;60.60;;;;;;4930132;29;20462;-76
2023/01/15 12:14:31;;;;;;;4.93;1.13;;;21.60;60.60;;;;;;4931829;29;20499;-65
2023/01/15 12:17:07;;;;;;;2.47;1.57;;;21.50;60.50;;;;;;4932856;29;20993;-68
2023/01/15 12:19:42;;;;;;;1.77;1.33;;;21.50;60.40;;;;;;4927921;29;20460;-68
2023/01/15 12:22:34;;;;;;;2.63;1.70;;;21.50;60.50;;;;;;4930736;29;20852;-69
2023/01/15 12:25:23;;;;;;;3.67;1.83;;;21.50;60.20;;;;;;4933556;29;20471;-68
2023/01/15 12:28:06;;;;;;;1.83;1.43;;;21.50;60.30;;;;;;4931330;29;20499;-69
2023/01/15 12:30:43;;;;;;;1.87;1.50;;;21.50;60.40;;;;;;4931530;29;20868;-73
2023/01/15 12:33:21;;;;;;;6.73;1.97;;;21.50;60.30;;;;;;4928859;29;21025;-71
2023/01/15 12:35:55;;;;;;;1.77;1.60;;;21.50;60.20;;;;;;4931175;29;20474;-75
2023/01/15 12:38:36;;;;;;;4.63;1.70;;;21.50;60.40;;;;;;4934394;29;20533;-69
2023/01/15 12:41:10;;;;;;;5.53;1.50;;;21.50;60.60;;;;;;4931817;29;20513;-72
2023/01/15 12:46:28;;;;;;;4.27;1.90;;;21.60;60.50;;;;;;4930966;29;20898;-67
2023/01/15 12:49:05;;;;;;;3.40;2.10;;;21.60;60.50;;;;;;4931930;29;20480;-70
2023/01/15 12:51:41;;;;;;;2.13;1.57;;;21.60;60.40;;;;;;4932163;29;20483;-70
2023/01/15 12:54:13;;;;;;;4.50;1.47;;;21.60;60.50;;;;;;4932334;29;20509;-68
2023/01/15 12:56:52;;;;;;;2.53;1.67;;;21.60;60.50;;;;;;4932017;29;21352;-70
2023/01/15 12:59:26;;;;;;;2.90;1.57;;;21.60;60.60;;;;;;4923635;29;20542;-69
2023/01/15 13:02:15;;;;;;;2.50;1.70;;;21.70;60.60;;;;;;4925768;29;20970;-70
2023/01/15 13:04:48;;;;;;;3.27;1.40;;;21.70;60.50;;;;;;4932629;29;20432;-70
2023/01/15 13:07:25;;;;;;;3.93;1.80;;;21.70;60.50;;;;;;4916918;29;20484;-70
2023/01/15 13:10:00;;;;;;;3.43;2.10;;;21.70;60.40;;;;;;4930530;29;20464;-69
2023/01/15 13:12:30;;;;;;;2.67;1.73;;;21.70;60.50;;;;;;4930413;29;20546;-69
2023/01/15 13:14:58;;;;;;;4.70;2.13;;;21.70;60.30;;;;;;4930834;29;20526;-69
2023/01/15 13:17:38;;;;;;;2.70;1.30;;;21.70;60.60;;;;;;4934011;29;20546;-70
2023/01/15 13:20:23;;;;;;;6.53;1.60;;;21.60;60.30;;;;;;4930997;29;20567;-70
2023/01/15 13:23:07;;;;;;;5.57;1.80;;;21.60;60.70;;;;;;4932784;29;20456;-69
2023/01/15 13:26:06;;;;;;;4.23;1.80;;;21.60;60.60;;;;;;4932597;29;20492;-70
2023/01/15 13:28:47;;;;;;;5.50;1.80;;;21.60;60.60;;;;;;4931729;29;20553;-70
2023/01/15 13:31:42;;;;;;;4.60;2.27;;;21.60;60.80;;;;;;4929458;29;20464;-70
2023/01/15 13:34:19;;;;;;;1.93;1.47;;;21.60;60.70;;;;;;4919773;29;20559;-68
2023/01/15 13:36:49;;;;;;;3.73;1.87;;;21.50;60.40;;;;;;4930937;29;20464;-72
2023/01/15 13:39:22;;;;;;;2.80;1.70;;;21.50;60.50;;;;;;4930510;29;20472;-69
2023/01/15 13:44:48;;;;;;;3.73;1.63;;;21.40;60.90;;;;;;4921481;29;20463;-67
2023/01/15 13:47:22;;;;;;;3.37;1.47;;;21.40;61.10;;;;;;4931505;29;20947;-66
2023/01/15 13:49:55;;;;;;;3.63;2.00;;;21.40;61.00;;;;;;4931873;29;20513;-67
2023/01/15 13:52:28;;;;;;;2.20;1.30;;;21.50;61.00;;;;;;4932843;29;20450;-62
2023/01/15 13:55:00;;;;;;;4.03;1.93;;;21.50;60.80;;;;;;4933677;29;20541;-63
2023/01/15 13:57:34;;;;;;;1.90;1.43;;;21.50;60.70;;;;;;4933026;29;21006;-62
2023/01/15 14:00:03;;;;;;;7.13;1.53;;;21.50;60.90;;;;;;4935026;29;20446;-62
2023/01/15 14:02:39;;;;;;;2.93;1.50;;;21.60;60.80;;;;;;4934834;29;20883;-62
2023/01/15 14:05:31;;;;;;;2.40;1.63;;;21.60;60.70;;;;;;4932575;29;20451;-62
2023/01/15 14:08:01;;;;;;;2.47;1.47;;;21.70;60.40;;;;;;4933739;29;20522;-63